sensor_id;sensor_type;location;lat;lon;timestamp;pressure;altitude;pressure_sealevel;temperature;humidity
42591;BME280;28218;53.342;-6.216;2024-02-26T00:00:39;100736.53;;;7.03;100.00
42591;BME280;28218;53.342;-6.216;2024-02-26T00:03:07;100748.91;;;7.01;100.00
42591;BME280;28218;53.342;-6.216;2024-02-26T00:05:37;100751.53;;;7.01;100.00
42591;BME280;28218;53.342;-6.216;2024-02-26T00:08:07;100761.91;;;7.02;100.00
42591;BME280;28218;53.342;-6.216;2024-02-26T00:10:35;100771.69;;;7.00;100.00
42591;BME280;28218;53.342;-6.216;2024-02-26T00:13:04;100769.88;;;7.01;100.00
42591;BME280;28218;53.342;-6.216;2024-02-26T00:15:32;100777.75;;;7.01;100.00
42591;BME280;28218;53.342;-6.216;2024-02-26T00:18:02;100778.03;;;6.98;100.00
42591;BME280;28218;53.342;-6.216;2024-02-26T00:20:30;100784.25;;;6.97;100.00
42591;BME280;28218;53.342;-6.216;2024-02-26T00:23:00;100785.91;;;6.98;100.00
42591;BME280;28218;53.342;-6.216;2024-02-26T00:25:28;100790.84;;;7.01;100.00
42591;BME280;28218;53.342;-6.216;2024-02-26T00:27:56;100796.94;;;7.01;100.00
42591;BME280;28218;53.342;-6.216;2024-02-26T00:30:25;100805.72;;;7.00;100.00
42591;BME280;28218;53.342;-6.216;2024-02-26T00:32:53;100807.69;;;6.98;100.00
42591;BME280;28218;53.342;-6.216;2024-02-26T00:35:22;100815.38;;;7.00;100.00
42591;BME280;28218;53.342;-6.216;2024-02-26T00:37:50;100816.22;;;7.00;100.00
42591;BME280;28218;53.342;-6.216;2024-02-26T00:40:19;100820.63;;;7.00;100.00
42591;BME280;28218;53.342;-6.216;2024-02-26T00:42:48;100826.84;;;6.99;100.00
42591;BME280;28218;53.342;-6.216;2024-02-26T00:45:17;100836.50;;;6.98;100.00
42591;BME280;28218;53.342;-6.216;2024-02-26T00:47:45;100834.03;;;6.97;100.00
42591;BME280;28218;53.342;-6.216;2024-02-26T00:50:15;100849.06;;;6.95;100.00
42591;BME280;28218;53.342;-6.216;2024-02-26T00:52:43;100855.25;;;6.94;100.00
42591;BME280;28218;53.342;-6.216;2024-02-26T00:55:11;100858.84;;;6.93;100.00
42591;BME280;28218;53.342;-6.216;2024-02-26T00:57:41;100864.78;;;6.95;100.00
42591;BME280;28218;53.342;-6.216;2024-02-26T01:00:10;100867.53;;;6.93;100.00
42591;BME280;28218;53.342;-6.216;2024-02-26T01:02:39;100876.22;;;6.94;100.00
42591;BME280;28218;53.342;-6.216;2024-02-26T01:05:09;100871.41;;;6.89;100.00
42591;BME280;28218;53.342;-6.216;2024-02-26T01:07:37;100875.97;;;6.87;100.00
42591;BME280;28218;53.342;-6.216;2024-02-26T01:10:07;100894.72;;;6.82;100.00
42591;BME280;28218;53.342;-6.216;2024-02-26T01:12:36;100894.72;;;6.82;100.00
42591;BME280;28218;53.342;-6.216;2024-02-26T01:15:06;100895.81;;;6.80;100.00
42591;BME280;28218;53.342;-6.216;2024-02-26T01:17:36;100906.44;;;6.78;100.00
42591;BME280;28218;53.342;-6.216;2024-02-26T01:20:06;100904.09;;;6.75;100.00
42591;BME280;28218;53.342;-6.216;2024-02-26T01:22:35;100916.34;;;6.75;100.00
42591;BME280;28218;53.342;-6.216;2024-02-26T01:25:04;100920.75;;;6.74;100.00
42591;BME280;28218;53.342;-6.216;2024-02-26T01:27:33;100927.66;;;6.75;100.00
42591;BME280;28218;53.342;-6.216;2024-02-26T01:30:01;100934.13;;;6.71;100.00
42591;BME280;28218;53.342;-6.216;2024-02-26T01:32:32;100945.31;;;6.73;100.00
42591;BME280;28218;53.342;-6.216;2024-02-26T01:35:03;100949.44;;;6.76;100.00
42591;BME280;28218;53.342;-6.216;2024-02-26T01:37:32;100953.84;;;6.75;100.00
42591;BME280;28218;53.342;-6.216;2024-02-26T01:40:00;100966.25;;;6.73;100.00
42591;BME280;28218;53.342;-6.216;2024-02-26T01:42:30;100972.16;;;6.75;100.00
42591;BME280;28218;53.342;-6.216;2024-02-26T01:44:59;100966.94;;;6.75;100.00
42591;BME280;28218;53.342;-6.216;2024-02-26T01:47:28;100979.78;;;6.78;100.00
42591;BME280;28218;53.342;-6.216;2024-02-26T01:49:58;100972.84;;;6.77;100.00
42591;BME280;28218;53.342;-6.216;2024-02-26T01:52:27;100985.41;;;6.74;100.00
42591;BME280;28218;53.342;-6.216;2024-02-26T01:54:55;100999.59;;;6.71;100.00
42591;BME280;28218;53.342;-6.216;2024-02-26T01:57:24;101002.22;;;6.71;100.00
42591;BME280;28218;53.342;-6.216;2024-02-26T01:59:52;101019.72;;;6.71;100.00
42591;BME280;28218;53.342;-6.216;2024-02-26T02:02:20;101024.13;;;6.70;100.00
42591;BME280;28218;53.342;-6.216;2024-02-26T02:04:49;101028.69;;;6.68;100.00
42591;BME280;28218;53.342;-6.216;2024-02-26T02:07:18;101039.03;;;6.70;100.00
42591;BME280;28218;53.342;-6.216;2024-02-26T02:09:48;101042.03;;;6.65;100.00
42591;BME280;28218;53.342;-6.216;2024-02-26T02:12:16;101051.81;;;6.63;100.00
42591;BME280;28218;53.342;-6.216;2024-02-26T02:14:44;101056.38;;;6.61;100.00
42591;BME280;28218;53.342;-6.216;2024-02-26T02:17:13;101059.94;;;6.60;100.00
42591;BME280;28218;53.342;-6.216;2024-02-26T02:19:41;101068.78;;;6.59;100.00
42591;BME280;28218;53.342;-6.216;2024-02-26T02:22:11;101067.81;;;6.60;100.00
42591;BME280;28218;53.342;-6.216;2024-02-26T02:24:39;101066.84;;;6.61;100.00
42591;BME280;28218;53.342;-6.216;2024-02-26T02:27:07;101069.59;;;6.59;100.00
42591;BME280;28218;53.342;-6.216;2024-02-26T02:29:36;101067.91;;;6.58;100.00
42591;BME280;28218;53.342;-6.216;2024-02-26T02:32:05;101076.16;;;6.54;100.00
42591;BME280;28218;53.342;-6.216;2024-02-26T02:34:37;101083.34;;;6.52;100.00
42591;BME280;28218;53.342;-6.216;2024-02-26T02:37:05;101082.78;;;6.48;100.00
42591;BME280;28218;53.342;-6.216;2024-02-26T02:39:34;101078.75;;;6.44;100.00
42591;BME280;28218;53.342;-6.216;2024-02-26T02:42:03;101094.59;;;6.43;100.00
42591;BME280;28218;53.342;-6.216;2024-02-26T02:44:31;101102.47;;;6.43;100.00
42591;BME280;28218;53.342;-6.216;2024-02-26T02:47:00;101102.72;;;6.39;100.00
42591;BME280;28218;53.342;-6.216;2024-02-26T02:49:28;101103.44;;;6.42;100.00
42591;BME280;28218;53.342;-6.216;2024-02-26T02:51:56;101105.31;;;6.39;100.00
42591;BME280;28218;53.342;-6.216;2024-02-26T02:54:25;101115.69;;;6.41;100.00
42591;BME280;28218;53.342;-6.216;2024-02-26T02:56:55;101132.47;;;6.38;100.00
42591;BME280;28218;53.342;-6.216;2024-02-26T02:59:23;101135.47;;;6.34;100.00
42591;BME280;28218;53.342;-6.216;2024-02-26T03:01:51;101141.09;;;6.29;100.00
42591;BME280;28218;53.342;-6.216;2024-02-26T03:04:20;101158.97;;;6.24;100.00
42591;BME280;28218;53.342;-6.216;2024-02-26T03:06:48;101167.50;;;6.17;100.00
42591;BME280;28218;53.342;-6.216;2024-02-26T03:09:16;101165.75;;;6.06;100.00
42591;BME280;28218;53.342;-6.216;2024-02-26T03:11:45;101164.34;;;6.02;100.00
42591;BME280;28218;53.342;-6.216;2024-02-26T03:14:15;101161.28;;;5.97;100.00
42591;BME280;28218;53.342;-6.216;2024-02-26T03:16:45;101176.28;;;5.95;100.00
42591;BME280;28218;53.342;-6.216;2024-02-26T03:19:14;101179.97;;;5.92;100.00
42591;BME280;28218;53.342;-6.216;2024-02-26T03:21:43;101186.03;;;5.93;100.00
42591;BME280;28218;53.342;-6.216;2024-02-26T03:24:11;101196.50;;;5.93;100.00
42591;BME280;28218;53.342;-6.216;2024-02-26T03:26:40;101201.00;;;5.90;100.00
42591;BME280;28218;53.342;-6.216;2024-02-26T03:29:08;101204.81;;;5.86;100.00
42591;BME280;28218;53.342;-6.216;2024-02-26T03:31:38;101211.59;;;5.89;100.00
42591;BME280;28218;53.342;-6.216;2024-02-26T03:34:06;101212.44;;;5.89;100.00
42591;BME280;28218;53.342;-6.216;2024-02-26T03:36:35;101224.53;;;5.90;100.00
42591;BME280;28218;53.342;-6.216;2024-02-26T03:39:03;101225.25;;;5.93;100.00
42591;BME280;28218;53.342;-6.216;2024-02-26T03:41:34;101222.06;;;5.89;100.00
42591;BME280;28218;53.342;-6.216;2024-02-26T03:44:03;101225.50;;;5.89;100.00
42591;BME280;28218;53.342;-6.216;2024-02-26T03:46:31;101231.56;;;5.90;100.00
42591;BME280;28218;53.342;-6.216;2024-02-26T03:49:01;101237.84;;;5.87;100.00
42591;BME280;28218;53.342;-6.216;2024-02-26T03:51:30;101252.03;;;5.85;100.00
42591;BME280;28218;53.342;-6.216;2024-02-26T03:54:00;101261.66;;;5.84;100.00
42591;BME280;28218;53.342;-6.216;2024-02-26T03:56:28;101272.00;;;5.86;100.00
42591;BME280;28218;53.342;-6.216;2024-02-26T03:58:56;101277.59;;;5.81;100.00
42591;BME280;28218;53.342;-6.216;2024-02-26T04:01:26;101287.22;;;5.81;100.00
42591;BME280;28218;53.342;-6.216;2024-02-26T04:03:55;101304.72;;;5.80;100.00
42591;BME280;28218;53.342;-6.216;2024-02-26T04:06:25;101310.06;;;5.79;100.00
42591;BME280;28218;53.342;-6.216;2024-02-26T04:08:53;101302.31;;;5.77;100.00
42591;BME280;28218;53.342;-6.216;2024-02-26T04:11:21;101303.53;;;5.73;100.00
42591;BME280;28218;53.342;-6.216;2024-02-26T04:13:50;101309.72;;;5.72;100.00
42591;BME280;28218;53.342;-6.216;2024-02-26T04:16:19;101315.91;;;5.71;100.00
42591;BME280;28218;53.342;-6.216;2024-02-26T04:18:47;101323.28;;;5.66;100.00
42591;BME280;28218;53.342;-6.216;2024-02-26T04:21:16;101323.28;;;5.66;100.00
42591;BME280;28218;53.342;-6.216;2024-02-26T04:23:46;101342.06;;;5.60;100.00
42591;BME280;28218;53.342;-6.216;2024-02-26T04:26:15;101341.13;;;5.61;100.00
42591;BME280;28218;53.342;-6.216;2024-02-26T04:28:44;101354.63;;;5.55;100.00
42591;BME280;28218;53.342;-6.216;2024-02-26T04:31:12;101359.03;;;5.54;100.00
42591;BME280;28218;53.342;-6.216;2024-02-26T04:33:40;101363.72;;;5.51;100.00
42591;BME280;28218;53.342;-6.216;2024-02-26T04:36:13;101373.19;;;5.52;100.00
42591;BME280;28218;53.342;-6.216;2024-02-26T04:38:42;101381.28;;;5.49;100.00
42591;BME280;28218;53.342;-6.216;2024-02-26T04:41:11;101388.63;;;5.44;100.00
42591;BME280;28218;53.342;-6.216;2024-02-26T04:43:40;101386.97;;;5.43;100.00
42591;BME280;28218;53.342;-6.216;2024-02-26T04:46:09;101395.03;;;5.39;100.00
42591;BME280;28218;53.342;-6.216;2024-02-26T04:48:37;101399.31;;;5.41;100.00
42591;BME280;28218;53.342;-6.216;2024-02-26T04:51:08;101399.31;;;5.41;100.00
42591;BME280;28218;53.342;-6.216;2024-02-26T04:53:37;101408.38;;;5.36;100.00
42591;BME280;28218;53.342;-6.216;2024-02-26T04:56:06;101410.13;;;5.36;100.00
42591;BME280;28218;53.342;-6.216;2024-02-26T04:58:35;101423.09;;;5.37;100.00
42591;BME280;28218;53.342;-6.216;2024-02-26T05:01:04;101423.31;;;5.34;100.00
42591;BME280;28218;53.342;-6.216;2024-02-26T05:03:32;101430.09;;;5.37;100.00
42591;BME280;28218;53.342;-6.216;2024-02-26T05:06:03;101434.59;;;5.35;100.00
42591;BME280;28218;53.342;-6.216;2024-02-26T05:08:32;101439.13;;;5.33;100.00
42591;BME280;28218;53.342;-6.216;2024-02-26T05:11:03;101446.84;;;5.34;100.00
42591;BME280;28218;53.342;-6.216;2024-02-26T05:13:31;101455.63;;;5.33;100.00
42591;BME280;28218;53.342;-6.216;2024-02-26T05:16:01;101450.53;;;5.32;100.00
42591;BME280;28218;53.342;-6.216;2024-02-26T05:18:29;101456.81;;;5.29;100.00
42591;BME280;28218;53.342;-6.216;2024-02-26T05:20:57;101464.88;;;5.26;100.00
42591;BME280;28218;53.342;-6.216;2024-02-26T05:23:26;101474.75;;;5.23;100.00
42591;BME280;28218;53.342;-6.216;2024-02-26T05:25:54;101482.66;;;5.21;100.00
42591;BME280;28218;53.342;-6.216;2024-02-26T05:28:23;101490.50;;;5.21;100.00
42591;BME280;28218;53.342;-6.216;2024-02-26T05:30:51;101492.19;;;5.22;100.00
42591;BME280;28218;53.342;-6.216;2024-02-26T05:33:21;101506.09;;;5.23;100.00
42591;BME280;28218;53.342;-6.216;2024-02-26T05:35:50;101511.19;;;5.24;100.00
42591;BME280;28218;53.342;-6.216;2024-02-26T05:38:18;101507.97;;;5.21;100.00
42591;BME280;28218;53.342;-6.216;2024-02-26T05:40:47;101516.41;;;5.24;100.00
42591;BME280;28218;53.342;-6.216;2024-02-26T05:43:15;101520.94;;;5.22;100.00
42591;BME280;28218;53.342;-6.216;2024-02-26T05:45:43;101519.16;;;5.23;100.00
42591;BME280;28218;53.342;-6.216;2024-02-26T05:48:12;101516.75;;;5.20;100.00
42591;BME280;28218;53.342;-6.216;2024-02-26T05:50:41;101528.03;;;5.20;100.00
42591;BME280;28218;53.342;-6.216;2024-02-26T05:53:10;101530.66;;;5.20;100.00
42591;BME280;28218;53.342;-6.216;2024-02-26T05:55:38;101538.72;;;5.17;100.00
42591;BME280;28218;53.342;-6.216;2024-02-26T05:58:06;101538.00;;;5.15;100.00
42591;BME280;28218;53.342;-6.216;2024-02-26T06:00:35;101546.53;;;5.17;100.00
42591;BME280;28218;53.342;-6.216;2024-02-26T06:03:03;101547.50;;;5.16;100.00
42591;BME280;28218;53.342;-6.216;2024-02-26T06:05:32;101544.88;;;5.16;100.00
42591;BME280;28218;53.342;-6.216;2024-02-26T06:08:01;101556.41;;;5.13;100.00
42591;BME280;28218;53.342;-6.216;2024-02-26T06:10:30;101556.63;;;5.10;100.00
42591;BME280;28218;53.342;-6.216;2024-02-26T06:12:58;101550.44;;;5.11;100.00
42591;BME280;28218;53.342;-6.216;2024-02-26T06:15:26;101558.41;;;5.10;100.00
42591;BME280;28218;53.342;-6.216;2024-02-26T06:17:55;101556.41;;;5.13;100.00
42591;BME280;28218;53.342;-6.216;2024-02-26T06:20:23;101566.03;;;5.13;100.00
42591;BME280;28218;53.342;-6.216;2024-02-26T06:22:52;101571.97;;;5.15;100.00
42591;BME280;28218;53.342;-6.216;2024-02-26T06:25:21;101568.41;;;5.16;100.00
42591;BME280;28218;53.342;-6.216;2024-02-26T06:27:49;101575.53;;;5.14;100.00
42591;BME280;28218;53.342;-6.216;2024-02-26T06:30:17;101579.09;;;5.13;100.00
42591;BME280;28218;53.342;-6.216;2024-02-26T06:32:46;101586.81;;;5.15;100.00
42591;BME280;28218;53.342;-6.216;2024-02-26T06:35:14;101586.69;;;5.16;100.00
42591;BME280;28218;53.342;-6.216;2024-02-26T06:37:43;101584.19;;;5.15;100.00
42591;BME280;28218;53.342;-6.216;2024-02-26T06:40:11;101595.47;;;5.15;100.00
42591;BME280;28218;53.342;-6.216;2024-02-26T06:42:41;101601.66;;;5.14;100.00
42591;BME280;28218;53.342;-6.216;2024-02-26T06:45:14;101603.09;;;5.18;100.00
42591;BME280;28218;53.342;-6.216;2024-02-26T06:47:43;101607.59;;;5.16;100.00
42591;BME280;28218;53.342;-6.216;2024-02-26T06:50:12;101607.84;;;5.13;100.00
42591;BME280;28218;53.342;-6.216;2024-02-26T06:52:40;101620.91;;;5.13;100.00
42591;BME280;28218;53.342;-6.216;2024-02-26T06:55:08;101625.16;;;5.14;100.00
42591;BME280;28218;53.342;-6.216;2024-02-26T06:57:37;101638.22;;;5.14;100.00
42591;BME280;28218;53.342;-6.216;2024-02-26T07:00:08;101641.06;;;5.11;100.00
42591;BME280;28218;53.342;-6.216;2024-02-26T07:02:41;101649.72;;;5.11;100.00
42591;BME280;28218;53.342;-6.216;2024-02-26T07:05:09;101636.78;;;5.10;100.00
42591;BME280;28218;53.342;-6.216;2024-02-26T07:07:38;101641.78;;;5.13;100.00
42591;BME280;28218;53.342;-6.216;2024-02-26T07:10:07;101641.78;;;5.13;100.00
42591;BME280;28218;53.342;-6.216;2024-02-26T07:12:36;101638.44;;;5.11;100.00
42591;BME280;28218;53.342;-6.216;2024-02-26T07:15:07;101643.47;;;5.14;100.00
42591;BME280;28218;53.342;-6.216;2024-02-26T07:17:35;101649.72;;;5.11;100.00
42591;BME280;28218;53.342;-6.216;2024-02-26T07:20:05;101659.53;;;5.08;100.00
42591;BME280;28218;53.342;-6.216;2024-02-26T07:22:36;101666.56;;;5.07;100.00
42591;BME280;28218;53.342;-6.216;2024-02-26T07:25:05;101668.34;;;5.07;100.00
42591;BME280;28218;53.342;-6.216;2024-02-26T07:27:35;101665.84;;;5.05;100.00
42591;BME280;28218;53.342;-6.216;2024-02-26T07:30:04;101669.28;;;5.06;100.00
42591;BME280;28218;53.342;-6.216;2024-02-26T07:32:35;101676.91;;;5.09;100.00
42591;BME280;28218;53.342;-6.216;2024-02-26T07:35:03;101682.47;;;5.04;100.00
42591;BME280;28218;53.342;-6.216;2024-02-26T07:37:32;101684.97;;;5.06;100.00
42591;BME280;28218;53.342;-6.216;2024-02-26T07:40:01;101687.56;;;5.06;100.00
42591;BME280;28218;53.342;-6.216;2024-02-26T07:42:30;101692.78;;;5.06;100.00
42591;BME280;28218;53.342;-6.216;2024-02-26T07:44:58;101697.81;;;5.09;100.00
42591;BME280;28218;53.342;-6.216;2024-02-26T07:47:26;101708.03;;;5.12;100.00
42591;BME280;28218;53.342;-6.216;2024-02-26T07:49:58;101713.25;;;5.12;100.00
42591;BME280;28218;53.342;-6.216;2024-02-26T07:52:26;101714.19;;;5.11;100.00
42591;BME280;28218;53.342;-6.216;2024-02-26T07:54:54;101721.09;;;5.12;100.00
42591;BME280;28218;53.342;-6.216;2024-02-26T07:57:23;101733.22;;;5.13;100.00
42591;BME280;28218;53.342;-6.216;2024-02-26T07:59:51;101740.31;;;5.11;100.00
42591;BME280;28218;53.342;-6.216;2024-02-26T08:02:20;101742.00;;;5.12;100.00
42591;BME280;28218;53.342;-6.216;2024-02-26T08:04:49;101743.69;;;5.13;100.00
42591;BME280;28218;53.342;-6.216;2024-02-26T08:07:19;101742.63;;;5.16;100.00
42591;BME280;28218;53.342;-6.216;2024-02-26T08:09:48;101758.41;;;5.14;100.00
42591;BME280;28218;53.342;-6.216;2024-02-26T08:12:16;101754.84;;;5.15;100.00
42591;BME280;28218;53.342;-6.216;2024-02-26T08:14:45;101767.72;;;5.18;100.00
42591;BME280;28218;53.342;-6.216;2024-02-26T08:17:13;101766.88;;;5.18;100.00
42591;BME280;28218;53.342;-6.216;2024-02-26T08:19:41;101771.97;;;5.19;100.00
42591;BME280;28218;53.342;-6.216;2024-02-26T08:22:10;101776.78;;;5.25;100.00
42591;BME280;28218;53.342;-6.216;2024-02-26T08:24:44;101792.97;;;5.30;100.00
42591;BME280;28218;53.342;-6.216;2024-02-26T08:27:13;101793.72;;;5.32;100.00
42591;BME280;28218;53.342;-6.216;2024-02-26T08:29:41;101787.91;;;5.40;100.00
42591;BME280;28218;53.342;-6.216;2024-02-26T08:32:09;101794.91;;;5.52;100.00
42591;BME280;28218;53.342;-6.216;2024-02-26T08:34:37;101794.56;;;5.57;100.00
42591;BME280;28218;53.342;-6.216;2024-02-26T08:37:06;101798.41;;;5.64;100.00
42591;BME280;28218;53.342;-6.216;2024-02-26T08:39:34;101801.31;;;5.72;100.00
42591;BME280;28218;53.342;-6.216;2024-02-26T08:42:04;101802.22;;;5.84;100.00
42591;BME280;28218;53.342;-6.216;2024-02-26T08:44:33;101802.59;;;5.90;100.00
42591;BME280;28218;53.342;-6.216;2024-02-26T08:47:01;101812.44;;;6.00;100.00
42591;BME280;28218;53.342;-6.216;2024-02-26T08:49:30;101823.28;;;6.06;100.00
42591;BME280;28218;53.342;-6.216;2024-02-26T08:51:58;101829.63;;;6.15;100.00
42591;BME280;28218;53.342;-6.216;2024-02-26T08:54:26;101826.81;;;6.18;100.00
42591;BME280;28218;53.342;-6.216;2024-02-26T08:56:55;101836.09;;;6.22;100.00
42591;BME280;28218;53.342;-6.216;2024-02-26T08:59:24;101839.22;;;6.27;100.00
42591;BME280;28218;53.342;-6.216;2024-02-26T09:01:53;101845.97;;;6.30;100.00
42591;BME280;28218;53.342;-6.216;2024-02-26T09:04:21;101856.03;;;6.36;100.00
42591;BME280;28218;53.342;-6.216;2024-02-26T09:06:49;101849.63;;;6.40;100.00
42591;BME280;28218;53.342;-6.216;2024-02-26T09:09:17;101859.63;;;6.46;100.00
42591;BME280;28218;53.342;-6.216;2024-02-26T09:11:46;101862.97;;;6.48;100.00
42591;BME280;28218;53.342;-6.216;2024-02-26T09:14:15;101862.75;;;6.51;100.00
42591;BME280;28218;53.342;-6.216;2024-02-26T09:16:45;101862.41;;;6.56;100.00
42591;BME280;28218;53.342;-6.216;2024-02-26T09:19:15;101852.41;;;6.61;100.00
42591;BME280;28218;53.342;-6.216;2024-02-26T09:21:43;101856.00;;;6.71;100.00
42591;BME280;28218;53.342;-6.216;2024-02-26T09:24:12;101862.47;;;6.78;100.00
42591;BME280;28218;53.342;-6.216;2024-02-26T09:26:40;101861.03;;;6.85;100.00
42591;BME280;28218;53.342;-6.216;2024-02-26T09:29:08;101864.63;;;6.96;100.00
42591;BME280;28218;53.342;-6.216;2024-02-26T09:31:37;101869.91;;;7.07;100.00
42591;BME280;28218;53.342;-6.216;2024-02-26T09:34:08;101872.53;;;7.18;100.00
42591;BME280;28218;53.342;-6.216;2024-02-26T09:36:36;101880.66;;;7.26;100.00
42591;BME280;28218;53.342;-6.216;2024-02-26T09:39:04;101876.84;;;7.30;100.00
42591;BME280;28218;53.342;-6.216;2024-02-26T09:41:34;101880.41;;;7.40;100.00
42591;BME280;28218;53.342;-6.216;2024-02-26T09:44:04;101882.78;;;7.55;100.00
42591;BME280;28218;53.342;-6.216;2024-02-26T09:46:33;101895.66;;;7.69;100.00
42591;BME280;28218;53.342;-6.216;2024-02-26T09:49:01;101901.97;;;7.78;100.00
42591;BME280;28218;53.342;-6.216;2024-02-26T09:51:32;101900.53;;;7.85;100.00
42591;BME280;28218;53.342;-6.216;2024-02-26T09:54:00;101905.78;;;7.96;100.00
42591;BME280;28218;53.342;-6.216;2024-02-26T09:56:33;101897.63;;;8.10;100.00
42591;BME280;28218;53.342;-6.216;2024-02-26T09:59:10;101884.69;;;8.18;100.00
42591;BME280;28218;53.342;-6.216;2024-02-26T10:01:42;101889.56;;;8.23;100.00
42591;BME280;28218;53.342;-6.216;2024-02-26T10:04:11;101887.91;;;8.33;100.00
42591;BME280;28218;53.342;-6.216;2024-02-26T10:06:41;101887.75;;;8.35;100.00
42591;BME280;28218;53.342;-6.216;2024-02-26T10:09:11;101891.94;;;8.37;100.00
42591;BME280;28218;53.342;-6.216;2024-02-26T10:11:40;101889.81;;;8.42;100.00
42591;BME280;28218;53.342;-6.216;2024-02-26T10:14:10;101883.81;;;8.52;100.00
42591;BME280;28218;53.342;-6.216;2024-02-26T10:16:38;101882.91;;;8.62;100.00
42591;BME280;28218;53.342;-6.216;2024-02-26T10:19:07;101875.09;;;8.72;100.00
42591;BME280;28218;53.342;-6.216;2024-02-26T10:21:37;101868.34;;;8.79;100.00
42591;BME280;28218;53.342;-6.216;2024-02-26T10:24:13;101883.63;;;8.85;100.00
42591;BME280;28218;53.342;-6.216;2024-02-26T10:26:45;101874.19;;;8.83;100.00
42591;BME280;28218;53.342;-6.216;2024-02-26T10:29:14;101884.13;;;8.79;100.00
42591;BME280;28218;53.342;-6.216;2024-02-26T10:31:42;101886.88;;;8.78;100.00
42591;BME280;28218;53.342;-6.216;2024-02-26T10:34:11;101903.75;;;8.75;100.00
42591;BME280;28218;53.342;-6.216;2024-02-26T10:36:39;101910.22;;;8.71;100.00
42591;BME280;28218;53.342;-6.216;2024-02-26T10:39:21;101904.97;;;8.71;100.00
42591;BME280;28218;53.342;-6.216;2024-02-26T10:41:49;101917.38;;;8.69;100.00
42591;BME280;28218;53.342;-6.216;2024-02-26T10:44:18;101928.34;;;8.74;100.00
42591;BME280;28218;53.342;-6.216;2024-02-26T10:46:47;101926.44;;;8.76;100.00
42591;BME280;28218;53.342;-6.216;2024-02-26T10:49:17;101913.47;;;8.84;100.00
42591;BME280;28218;53.342;-6.216;2024-02-26T10:51:54;101922.38;;;8.93;100.00
42591;BME280;28218;53.342;-6.216;2024-02-26T10:54:26;101929.41;;;9.04;100.00
42591;BME280;28218;53.342;-6.216;2024-02-26T10:56:56;101930.41;;;9.12;100.00
42591;BME280;28218;53.342;-6.216;2024-02-26T10:59:26;101935.56;;;9.14;100.00
42591;BME280;28218;53.342;-6.216;2024-02-26T11:01:55;101964.72;;;9.11;100.00
42591;BME280;28218;53.342;-6.216;2024-02-26T11:04:25;101972.84;;;9.08;100.00
42591;BME280;28218;53.342;-6.216;2024-02-26T11:06:57;101983.56;;;9.16;100.00
42591;BME280;28218;53.342;-6.216;2024-02-26T11:09:27;101997.44;;;9.18;100.00
42591;BME280;28218;53.342;-6.216;2024-02-26T11:11:57;102001.88;;;9.17;100.00
42591;BME280;28218;53.342;-6.216;2024-02-26T11:14:26;102010.59;;;9.18;100.00
42591;BME280;28218;53.342;-6.216;2024-02-26T11:16:57;102021.94;;;9.18;100.00
42591;BME280;28218;53.342;-6.216;2024-02-26T11:19:26;102041.19;;;9.19;100.00
42591;BME280;28218;53.342;-6.216;2024-02-26T11:21:56;102047.72;;;9.25;100.00
42591;BME280;28218;53.342;-6.216;2024-02-26T11:24:30;102049.66;;;9.23;100.00
42591;BME280;28218;53.342;-6.216;2024-02-26T11:27:02;102049.38;;;9.26;100.00
42591;BME280;28218;53.342;-6.216;2024-02-26T11:29:35;102050.81;;;9.30;100.00
42591;BME280;28218;53.342;-6.216;2024-02-26T11:32:06;102059.03;;;9.36;100.00
42591;BME280;28218;53.342;-6.216;2024-02-26T11:34:35;102055.63;;;9.45;100.00
42591;BME280;28218;53.342;-6.216;2024-02-26T11:37:10;102068.09;;;9.43;100.00
42591;BME280;28218;53.342;-6.216;2024-02-26T11:39:41;102079.56;;;9.42;100.00
42591;BME280;28218;53.342;-6.216;2024-02-26T11:42:09;102092.44;;;9.45;100.00
42591;BME280;28218;53.342;-6.216;2024-02-26T11:44:38;102108.00;;;9.48;100.00
42591;BME280;28218;53.342;-6.216;2024-02-26T11:47:10;102113.00;;;9.52;100.00
42591;BME280;28218;53.342;-6.216;2024-02-26T11:49:39;102132.97;;;9.54;100.00
42591;BME280;28218;53.342;-6.216;2024-02-26T11:52:09;102134.28;;;9.60;100.00
42591;BME280;28218;53.342;-6.216;2024-02-26T11:54:44;102135.59;;;9.54;100.00
42591;BME280;28218;53.342;-6.216;2024-02-26T11:57:23;102139.78;;;9.57;100.00
42591;BME280;28218;53.342;-6.216;2024-02-26T11:59:52;102141.84;;;9.74;100.00
42591;BME280;28218;53.342;-6.216;2024-02-26T12:02:44;102143.66;;;9.94;100.00
42591;BME280;28218;53.342;-6.216;2024-02-26T12:05:15;102148.72;;;9.86;100.00
42591;BME280;28218;53.342;-6.216;2024-02-26T12:07:45;102151.59;;;9.83;100.00
42591;BME280;28218;53.342;-6.216;2024-02-26T12:10:33;102149.22;;;9.80;100.00
42591;BME280;28218;53.342;-6.216;2024-02-26T12:13:07;102156.34;;;9.68;100.00
42591;BME280;28218;53.342;-6.216;2024-02-26T12:15:36;102162.34;;;9.59;100.00
42591;BME280;28218;53.342;-6.216;2024-02-26T12:18:07;102171.88;;;9.51;100.00
42591;BME280;28218;53.342;-6.216;2024-02-26T12:20:37;102186.47;;;9.43;100.00
42591;BME280;28218;53.342;-6.216;2024-02-26T12:23:05;102175.13;;;9.43;100.00
42591;BME280;28218;53.342;-6.216;2024-02-26T12:25:35;102164.34;;;9.46;100.00
42591;BME280;28218;53.342;-6.216;2024-02-26T12:28:03;102176.75;;;9.55;100.00
42591;BME280;28218;53.342;-6.216;2024-02-26T12:30:32;102174.06;;;9.66;100.00
42591;BME280;28218;53.342;-6.216;2024-02-26T12:33:00;102177.16;;;9.71;100.00
42591;BME280;28218;53.342;-6.216;2024-02-26T12:35:30;102177.66;;;9.86;100.00
42591;BME280;28218;53.342;-6.216;2024-02-26T12:37:59;102180.75;;;9.91;100.00
42591;BME280;28218;53.342;-6.216;2024-02-26T12:40:28;102186.22;;;9.99;100.00
42591;BME280;28218;53.342;-6.216;2024-02-26T12:42:58;102182.16;;;9.95;100.00
42591;BME280;28218;53.342;-6.216;2024-02-26T12:45:26;102186.47;;;9.96;100.00
42591;BME280;28218;53.342;-6.216;2024-02-26T12:47:55;102175.63;;;9.90;100.00
42591;BME280;28218;53.342;-6.216;2024-02-26T12:50:24;102181.19;;;9.96;100.00